sensor_id;sensor_type;location;lat;lon;timestamp;P1;durP1;ratioP1;P2;durP2;ratioP2
75851;SDS011;64500;52.632;20.656;2023-05-17T00:00:51;23.40;;;19.20;;
75851;SDS011;64500;52.632;20.656;2023-05-17T00:03:18;24.50;;;19.20;;
75851;SDS011;64500;52.632;20.656;2023-05-17T00:05:45;20.60;;;16.80;;
75851;SDS011;64500;52.632;20.656;2023-05-17T00:08:11;26.40;;;21.20;;
75851;SDS011;64500;52.632;20.656;2023-05-17T00:10:38;27.10;;;22.00;;
75851;SDS011;64500;52.632;20.656;2023-05-17T00:13:05;24.70;;;20.90;;
75851;SDS011;64500;52.632;20.656;2023-05-17T00:15:31;22.50;;;19.10;;
75851;SDS011;64500;52.632;20.656;2023-05-17T00:17:58;23.30;;;19.50;;
75851;SDS011;64500;52.632;20.656;2023-05-17T00:20:24;26.10;;;20.30;;
75851;SDS011;64500;52.632;20.656;2023-05-17T00:22:51;26.50;;;22.50;;
75851;SDS011;64500;52.632;20.656;2023-05-17T00:25:18;27.00;;;24.00;;
75851;SDS011;64500;52.632;20.656;2023-05-17T00:27:44;25.90;;;21.60;;
75851;SDS011;64500;52.632;20.656;2023-05-17T00:30:11;29.50;;;23.10;;
75851;SDS011;64500;52.632;20.656;2023-05-17T00:32:37;25.90;;;20.30;;
75851;SDS011;64500;52.632;20.656;2023-05-17T00:35:04;26.50;;;23.20;;
75851;SDS011;64500;52.632;20.656;2023-05-17T00:37:31;27.60;;;22.10;;
75851;SDS011;64500;52.632;20.656;2023-05-17T00:39:57;25.20;;;21.50;;
75851;SDS011;64500;52.632;20.656;2023-05-17T00:42:24;25.20;;;21.30;;
75851;SDS011;64500;52.632;20.656;2023-05-17T00:44:50;25.70;;;22.00;;
75851;SDS011;64500;52.632;20.656;2023-05-17T00:47:17;23.60;;;19.50;;
75851;SDS011;64500;52.632;20.656;2023-05-17T00:49:44;25.20;;;19.50;;
75851;SDS011;64500;52.632;20.656;2023-05-17T00:52:11;25.90;;;20.40;;
75851;SDS011;64500;52.632;20.656;2023-05-17T00:54:38;26.90;;;21.80;;
75851;SDS011;64500;52.632;20.656;2023-05-17T00:57:05;26.30;;;21.10;;
75851;SDS011;64500;52.632;20.656;2023-05-17T00:59:32;24.70;;;20.60;;
75851;SDS011;64500;52.632;20.656;2023-05-17T01:01:59;27.10;;;20.70;;
75851;SDS011;64500;52.632;20.656;2023-05-17T01:04:25;27.30;;;22.00;;
75851;SDS011;64500;52.632;20.656;2023-05-17T01:06:52;29.20;;;21.80;;
75851;SDS011;64500;52.632;20.656;2023-05-17T01:09:19;22.30;;;17.10;;
75851;SDS011;64500;52.632;20.656;2023-05-17T01:11:53;23.70;;;18.90;;
75851;SDS011;64500;52.632;20.656;2023-05-17T01:16:55;24.50;;;20.10;;
75851;SDS011;64500;52.632;20.656;2023-05-17T01:21:56;27.00;;;21.40;;
75851;SDS011;64500;52.632;20.656;2023-05-17T01:27:05;27.60;;;22.50;;
75851;SDS011;64500;52.632;20.656;2023-05-17T01:29:32;21.20;;;16.60;;
75851;SDS011;64500;52.632;20.656;2023-05-17T01:32:00;27.60;;;21.40;;
75851;SDS011;64500;52.632;20.656;2023-05-17T01:34:28;29.00;;;21.30;;
75851;SDS011;64500;52.632;20.656;2023-05-17T01:36:55;25.50;;;19.00;;
75851;SDS011;64500;52.632;20.656;2023-05-17T01:39:23;25.00;;;20.50;;
75851;SDS011;64500;52.632;20.656;2023-05-17T01:41:54;23.50;;;19.40;;
75851;SDS011;64500;52.632;20.656;2023-05-17T01:46:53;24.00;;;20.00;;
75851;SDS011;64500;52.632;20.656;2023-05-17T01:49:23;23.40;;;18.50;;
75851;SDS011;64500;52.632;20.656;2023-05-17T01:52:04;23.40;;;18.30;;
75851;SDS011;64500;52.632;20.656;2023-05-17T01:56:59;19.20;;;15.20;;
75851;SDS011;64500;52.632;20.656;2023-05-17T01:59:27;19.20;;;15.30;;
75851;SDS011;64500;52.632;20.656;2023-05-17T02:01:56;20.00;;;16.50;;
75851;SDS011;64500;52.632;20.656;2023-05-17T02:04:23;21.10;;;15.70;;
75851;SDS011;64500;52.632;20.656;2023-05-17T02:06:50;23.00;;;16.70;;
75851;SDS011;64500;52.632;20.656;2023-05-17T02:09:17;22.30;;;18.30;;
75851;SDS011;64500;52.632;20.656;2023-05-17T02:11:43;21.70;;;17.20;;
75851;SDS011;64500;52.632;20.656;2023-05-17T02:14:10;20.20;;;16.10;;
75851;SDS011;64500;52.632;20.656;2023-05-17T02:16:36;21.80;;;17.60;;
75851;SDS011;64500;52.632;20.656;2023-05-17T02:19:03;18.40;;;14.60;;
75851;SDS011;64500;52.632;20.656;2023-05-17T02:21:30;20.40;;;15.80;;
75851;SDS011;64500;52.632;20.656;2023-05-17T02:23:56;19.50;;;14.40;;
75851;SDS011;64500;52.632;20.656;2023-05-17T02:26:23;17.10;;;14.00;;
75851;SDS011;64500;52.632;20.656;2023-05-17T02:28:49;16.60;;;12.70;;
75851;SDS011;64500;52.632;20.656;2023-05-17T02:31:16;17.30;;;14.10;;
75851;SDS011;64500;52.632;20.656;2023-05-17T02:33:43;14.70;;;11.50;;
75851;SDS011;64500;52.632;20.656;2023-05-17T02:36:09;16.50;;;13.00;;
75851;SDS011;64500;52.632;20.656;2023-05-17T02:38:36;19.70;;;14.20;;
75851;SDS011;64500;52.632;20.656;2023-05-17T02:41:03;17.40;;;13.70;;
75851;SDS011;64500;52.632;20.656;2023-05-17T02:43:29;18.40;;;13.40;;
75851;SDS011;64500;52.632;20.656;2023-05-17T02:45:56;15.90;;;11.50;;
75851;SDS011;64500;52.632;20.656;2023-05-17T02:48:22;15.80;;;12.80;;
75851;SDS011;64500;52.632;20.656;2023-05-17T02:50:49;17.70;;;13.00;;
75851;SDS011;64500;52.632;20.656;2023-05-17T02:53:16;18.60;;;13.00;;
75851;SDS011;64500;52.632;20.656;2023-05-17T02:55:42;16.70;;;13.00;;
75851;SDS011;64500;52.632;20.656;2023-05-17T02:58:09;19.20;;;13.80;;
75851;SDS011;64500;52.632;20.656;2023-05-17T03:00:36;27.60;;;14.60;;
75851;SDS011;64500;52.632;20.656;2023-05-17T03:03:03;17.90;;;14.00;;
75851;SDS011;64500;52.632;20.656;2023-05-17T03:05:29;16.10;;;12.30;;
75851;SDS011;64500;52.632;20.656;2023-05-17T03:07:56;16.50;;;12.20;;
75851;SDS011;64500;52.632;20.656;2023-05-17T03:10:23;17.00;;;12.20;;
75851;SDS011;64500;52.632;20.656;2023-05-17T03:12:49;17.70;;;13.50;;
75851;SDS011;64500;52.632;20.656;2023-05-17T03:15:16;15.30;;;11.40;;
75851;SDS011;64500;52.632;20.656;2023-05-17T03:17:43;18.90;;;13.10;;
75851;SDS011;64500;52.632;20.656;2023-05-17T03:20:10;16.00;;;12.40;;
75851;SDS011;64500;52.632;20.656;2023-05-17T03:22:36;16.10;;;12.10;;
75851;SDS011;64500;52.632;20.656;2023-05-17T03:25:03;18.20;;;13.60;;
75851;SDS011;64500;52.632;20.656;2023-05-17T03:27:31;19.80;;;13.90;;
75851;SDS011;64500;52.632;20.656;2023-05-17T03:29:57;18.40;;;13.40;;
75851;SDS011;64500;52.632;20.656;2023-05-17T03:32:24;18.50;;;13.10;;
75851;SDS011;64500;52.632;20.656;2023-05-17T03:34:51;19.10;;;13.10;;
75851;SDS011;64500;52.632;20.656;2023-05-17T03:37:18;17.60;;;12.70;;
75851;SDS011;64500;52.632;20.656;2023-05-17T03:39:44;19.90;;;13.50;;
75851;SDS011;64500;52.632;20.656;2023-05-17T03:42:11;19.30;;;13.70;;
75851;SDS011;64500;52.632;20.656;2023-05-17T03:44:38;15.40;;;11.40;;
75851;SDS011;64500;52.632;20.656;2023-05-17T03:47:05;18.70;;;13.30;;
75851;SDS011;64500;52.632;20.656;2023-05-17T03:49:32;17.50;;;13.20;;
75851;SDS011;64500;52.632;20.656;2023-05-17T03:51:59;16.50;;;11.80;;
75851;SDS011;64500;52.632;20.656;2023-05-17T03:54:26;18.00;;;12.80;;
75851;SDS011;64500;52.632;20.656;2023-05-17T03:56:52;21.90;;;14.00;;
75851;SDS011;64500;52.632;20.656;2023-05-17T03:59:19;21.10;;;13.50;;
75851;SDS011;64500;52.632;20.656;2023-05-17T04:01:46;18.10;;;13.10;;
75851;SDS011;64500;52.632;20.656;2023-05-17T04:04:12;17.40;;;12.90;;
75851;SDS011;64500;52.632;20.656;2023-05-17T04:06:39;18.80;;;13.40;;
75851;SDS011;64500;52.632;20.656;2023-05-17T04:09:06;18.10;;;12.80;;
75851;SDS011;64500;52.632;20.656;2023-05-17T04:11:36;17.90;;;13.10;;
75851;SDS011;64500;52.632;20.656;2023-05-17T04:14:03;17.20;;;12.00;;
75851;SDS011;64500;52.632;20.656;2023-05-17T04:16:30;17.70;;;11.90;;
75851;SDS011;64500;52.632;20.656;2023-05-17T04:18:58;18.70;;;12.80;;
75851;SDS011;64500;52.632;20.656;2023-05-17T04:21:25;19.30;;;12.00;;
75851;SDS011;64500;52.632;20.656;2023-05-17T04:23:52;19.30;;;12.90;;
75851;SDS011;64500;52.632;20.656;2023-05-17T04:26:18;17.40;;;12.20;;
75851;SDS011;64500;52.632;20.656;2023-05-17T04:28:45;20.70;;;13.70;;
75851;SDS011;64500;52.632;20.656;2023-05-17T04:31:15;19.20;;;13.40;;
75851;SDS011;64500;52.632;20.656;2023-05-17T04:33:42;17.10;;;12.50;;
75851;SDS011;64500;52.632;20.656;2023-05-17T04:36:09;20.30;;;14.00;;
75851;SDS011;64500;52.632;20.656;2023-05-17T04:38:35;14.70;;;10.40;;
75851;SDS011;64500;52.632;20.656;2023-05-17T04:41:03;16.00;;;11.00;;
75851;SDS011;64500;52.632;20.656;2023-05-17T04:43:34;17.80;;;13.50;;
75851;SDS011;64500;52.632;20.656;2023-05-17T04:46:01;20.40;;;14.40;;
75851;SDS011;64500;52.632;20.656;2023-05-17T04:48:29;19.80;;;13.70;;
75851;SDS011;64500;52.632;20.656;2023-05-17T04:50:58;19.60;;;13.90;;
75851;SDS011;64500;52.632;20.656;2023-05-17T04:53:25;20.00;;;14.20;;
75851;SDS011;64500;52.632;20.656;2023-05-17T04:55:52;19.70;;;13.50;;
75851;SDS011;64500;52.632;20.656;2023-05-17T04:58:18;17.70;;;12.40;;
75851;SDS011;64500;52.632;20.656;2023-05-17T05:00:45;19.70;;;13.50;;
75851;SDS011;64500;52.632;20.656;2023-05-17T05:03:12;18.20;;;13.10;;
75851;SDS011;64500;52.632;20.656;2023-05-17T05:05:38;19.10;;;12.90;;
75851;SDS011;64500;52.632;20.656;2023-05-17T05:08:05;19.50;;;12.70;;
75851;SDS011;64500;52.632;20.656;2023-05-17T05:10:32;16.50;;;11.40;;
75851;SDS011;64500;52.632;20.656;2023-05-17T05:12:58;17.50;;;12.30;;
75851;SDS011;64500;52.632;20.656;2023-05-17T05:15:25;16.80;;;11.60;;
75851;SDS011;64500;52.632;20.656;2023-05-17T05:17:51;18.20;;;12.40;;
75851;SDS011;64500;52.632;20.656;2023-05-17T05:20:18;16.60;;;11.80;;
75851;SDS011;64500;52.632;20.656;2023-05-17T05:22:45;18.00;;;12.60;;
75851;SDS011;64500;52.632;20.656;2023-05-17T05:25:11;17.00;;;12.00;;
75851;SDS011;64500;52.632;20.656;2023-05-17T05:27:38;16.60;;;11.50;;
75851;SDS011;64500;52.632;20.656;2023-05-17T05:30:05;17.30;;;12.80;;
75851;SDS011;64500;52.632;20.656;2023-05-17T05:32:32;20.60;;;11.70;;
75851;SDS011;64500;52.632;20.656;2023-05-17T05:34:58;17.00;;;11.80;;
75851;SDS011;64500;52.632;20.656;2023-05-17T05:37:25;16.40;;;12.00;;
75851;SDS011;64500;52.632;20.656;2023-05-17T05:39:51;17.00;;;11.90;;
75851;SDS011;64500;52.632;20.656;2023-05-17T05:42:18;19.10;;;13.50;;
75851;SDS011;64500;52.632;20.656;2023-05-17T05:44:45;22.00;;;12.90;;
75851;SDS011;64500;52.632;20.656;2023-05-17T05:47:11;19.30;;;12.80;;
75851;SDS011;64500;52.632;20.656;2023-05-17T05:49:38;21.70;;;14.20;;
75851;SDS011;64500;52.632;20.656;2023-05-17T05:52:04;21.00;;;14.20;;
75851;SDS011;64500;52.632;20.656;2023-05-17T05:54:31;23.40;;;14.80;;
75851;SDS011;64500;52.632;20.656;2023-05-17T05:56:58;20.30;;;12.90;;
75851;SDS011;64500;52.632;20.656;2023-05-17T05:59:26;19.60;;;12.40;;
75851;SDS011;64500;52.632;20.656;2023-05-17T06:01:52;18.50;;;13.50;;
75851;SDS011;64500;52.632;20.656;2023-05-17T06:04:19;18.30;;;13.30;;
75851;SDS011;64500;52.632;20.656;2023-05-17T06:06:46;19.00;;;12.50;;
75851;SDS011;64500;52.632;20.656;2023-05-17T06:09:12;16.50;;;11.70;;
75851;SDS011;64500;52.632;20.656;2023-05-17T06:11:39;14.90;;;10.80;;
75851;SDS011;64500;52.632;20.656;2023-05-17T06:14:06;17.60;;;12.60;;
75851;SDS011;64500;52.632;20.656;2023-05-17T06:16:33;14.40;;;10.90;;
75851;SDS011;64500;52.632;20.656;2023-05-17T12:04:46;11.00;;;4.50;;
75851;SDS011;64500;52.632;20.656;2023-05-17T12:07:12;10.30;;;3.70;;
75851;SDS011;64500;52.632;20.656;2023-05-17T12:09:43;12.90;;;4.50;;
75851;SDS011;64500;52.632;20.656;2023-05-17T12:12:11;10.40;;;3.80;;
75851;SDS011;64500;52.632;20.656;2023-05-17T12:14:37;11.20;;;3.90;;
75851;SDS011;64500;52.632;20.656;2023-05-17T12:17:10;10.40;;;4.10;;
75851;SDS011;64500;52.632;20.656;2023-05-17T12:19:43;11.90;;;4.30;;
75851;SDS011;64500;52.632;20.656;2023-05-17T12:22:10;11.00;;;4.00;;
75851;SDS011;64500;52.632;20.656;2023-05-17T12:24:38;12.80;;;4.90;;
75851;SDS011;64500;52.632;20.656;2023-05-17T12:27:07;10.60;;;4.30;;
75851;SDS011;64500;52.632;20.656;2023-05-17T12:29:34;11.80;;;4.70;;
75851;SDS011;64500;52.632;20.656;2023-05-17T12:32:01;12.00;;;4.90;;
75851;SDS011;64500;52.632;20.656;2023-05-17T12:34:30;11.10;;;4.90;;
75851;SDS011;64500;52.632;20.656;2023-05-17T14:02:12;13.80;;;4.10;;
75851;SDS011;64500;52.632;20.656;2023-05-17T14:04:39;10.20;;;3.40;;
75851;SDS011;64500;52.632;20.656;2023-05-17T14:07:06;8.30;;;3.10;;
75851;SDS011;64500;52.632;20.656;2023-05-17T14:09:34;9.00;;;3.60;;
75851;SDS011;64500;52.632;20.656;2023-05-17T14:12:02;8.10;;;2.90;;
75851;SDS011;64500;52.632;20.656;2023-05-17T14:14:29;11.60;;;3.30;;
75851;SDS011;64500;52.632;20.656;2023-05-17T14:16:57;11.50;;;3.40;;
75851;SDS011;64500;52.632;20.656;2023-05-17T14:19:24;9.30;;;3.30;;
75851;SDS011;64500;52.632;20.656;2023-05-17T14:21:54;10.50;;;4.00;;
75851;SDS011;64500;52.632;20.656;2023-05-17T14:24:24;8.20;;;3.40;;
75851;SDS011;64500;52.632;20.656;2023-05-17T14:26:51;12.60;;;3.80;;
75851;SDS011;64500;52.632;20.656;2023-05-17T14:29:18;12.00;;;4.20;;
75851;SDS011;64500;52.632;20.656;2023-05-17T14:31:45;10.70;;;3.10;;
75851;SDS011;64500;52.632;20.656;2023-05-17T14:34:12;8.30;;;2.90;;
75851;SDS011;64500;52.632;20.656;2023-05-17T14:36:39;8.70;;;2.70;;
75851;SDS011;64500;52.632;20.656;2023-05-17T14:39:06;10.20;;;3.20;;
75851;SDS011;64500;52.632;20.656;2023-05-17T14:41:33;9.40;;;3.10;;
75851;SDS011;64500;52.632;20.656;2023-05-17T14:44:00;8.10;;;2.80;;
75851;SDS011;64500;52.632;20.656;2023-05-17T14:46:27;8.70;;;2.60;;
75851;SDS011;64500;52.632;20.656;2023-05-17T14:48:54;8.40;;;2.80;;
75851;SDS011;64500;52.632;20.656;2023-05-17T14:51:22;8.80;;;2.80;;
75851;SDS011;64500;52.632;20.656;2023-05-17T14:53:49;9.10;;;2.60;;
75851;SDS011;64500;52.632;20.656;2023-05-17T14:56:17;11.20;;;2.80;;
75851;SDS011;64500;52.632;20.656;2023-05-17T14:58:44;9.10;;;2.60;;
75851;SDS011;64500;52.632;20.656;2023-05-17T15:01:12;9.50;;;2.80;;
75851;SDS011;64500;52.632;20.656;2023-05-17T15:03:39;9.90;;;2.80;;
75851;SDS011;64500;52.632;20.656;2023-05-17T15:06:07;9.90;;;3.00;;
75851;SDS011;64500;52.632;20.656;2023-05-17T15:08:34;9.80;;;3.10;;
75851;SDS011;64500;52.632;20.656;2023-05-17T15:11:01;8.80;;;2.30;;
75851;SDS011;64500;52.632;20.656;2023-05-17T15:13:29;9.50;;;2.70;;
75851;SDS011;64500;52.632;20.656;2023-05-17T15:15:56;10.00;;;2.60;;
75851;SDS011;64500;52.632;20.656;2023-05-17T15:18:23;10.80;;;2.60;;
75851;SDS011;64500;52.632;20.656;2023-05-17T15:20:51;9.30;;;2.90;;
75851;SDS011;64500;52.632;20.656;2023-05-17T15:23:18;7.40;;;2.50;;
75851;SDS011;64500;52.632;20.656;2023-05-17T15:25:45;9.20;;;3.00;;
75851;SDS011;64500;52.632;20.656;2023-05-17T15:28:12;6.90;;;2.50;;
75851;SDS011;64500;52.632;20.656;2023-05-17T15:30:39;8.90;;;2.60;;
75851;SDS011;64500;52.632;20.656;2023-05-17T15:33:07;7.90;;;2.90;;
75851;SDS011;64500;52.632;20.656;2023-05-17T15:35:34;10.60;;;2.70;;
75851;SDS011;64500;52.632;20.656;2023-05-17T15:38:03;9.60;;;2.90;;
75851;SDS011;64500;52.632;20.656;2023-05-17T15:40:33;10.70;;;3.20;;
75851;SDS011;64500;52.632;20.656;2023-05-17T15:43:00;7.10;;;2.70;;
75851;SDS011;64500;52.632;20.656;2023-05-17T15:45:27;9.80;;;3.10;;
75851;SDS011;64500;52.632;20.656;2023-05-17T15:47:54;9.10;;;3.10;;
75851;SDS011;64500;52.632;20.656;2023-05-17T15:50:22;7.50;;;2.90;;
75851;SDS011;64500;52.632;20.656;2023-05-17T15:52:49;8.80;;;2.60;;
75851;SDS011;64500;52.632;20.656;2023-05-17T15:55:16;9.30;;;3.10;;
75851;SDS011;64500;52.632;20.656;2023-05-17T15:57:44;9.00;;;2.90;;
75851;SDS011;64500;52.632;20.656;2023-05-17T16:00:12;9.20;;;3.10;;
75851;SDS011;64500;52.632;20.656;2023-05-17T16:02:40;10.90;;;3.00;;
75851;SDS011;64500;52.632;20.656;2023-05-17T16:05:07;11.30;;;3.00;;
75851;SDS011;64500;52.632;20.656;2023-05-17T16:07:34;8.10;;;2.90;;
75851;SDS011;64500;52.632;20.656;2023-05-17T16:10:02;12.90;;;5.20;;
75851;SDS011;64500;52.632;20.656;2023-05-17T16:12:29;15.60;;;6.30;;
75851;SDS011;64500;52.632;20.656;2023-05-17T16:14:56;10.90;;;6.60;;
75851;SDS011;64500;52.632;20.656;2023-05-17T16:17:23;12.20;;;4.60;;
75851;SDS011;64500;52.632;20.656;2023-05-17T16:19:50;9.80;;;4.10;;
75851;SDS011;64500;52.632;20.656;2023-05-17T16:22:17;8.70;;;3.40;;
75851;SDS011;64500;52.632;20.656;2023-05-17T16:24:44;10.30;;;3.50;;
75851;SDS011;64500;52.632;20.656;2023-05-17T16:27:11;10.80;;;3.80;;
75851;SDS011;64500;52.632;20.656;2023-05-17T16:29:39;10.10;;;3.80;;
75851;SDS011;64500;52.632;20.656;2023-05-17T16:32:06;10.80;;;3.30;;
75851;SDS011;64500;52.632;20.656;2023-05-17T16:34:33;10.20;;;3.40;;
75851;SDS011;64500;52.632;20.656;2023-05-17T16:37:00;9.70;;;3.40;;
75851;SDS011;64500;52.632;20.656;2023-05-17T16:39:29;10.50;;;3.40;;
75851;SDS011;64500;52.632;20.656;2023-05-17T16:41:57;11.50;;;4.10;;
75851;SDS011;64500;52.632;20.656;2023-05-17T16:44:24;43.20;;;23.90;;
75851;SDS011;64500;52.632;20.656;2023-05-17T16:46:53;61.60;;;34.70;;
75851;SDS011;64500;52.632;20.656;2023-05-17T16:49:20;19.90;;;10.50;;
75851;SDS011;64500;52.632;20.656;2023-05-17T16:51:48;14.90;;;7.10;;
75851;SDS011;64500;52.632;20.656;2023-05-17T16:54:17;16.40;;;7.10;;
75851;SDS011;64500;52.632;20.656;2023-05-17T16:56:44;15.40;;;6.40;;
75851;SDS011;64500;52.632;20.656;2023-05-17T16:59:11;16.10;;;8.80;;
75851;SDS011;64500;52.632;20.656;2023-05-17T17:01:38;16.90;;;9.30;;
75851;SDS011;64500;52.632;20.656;2023-05-17T17:04:05;17.70;;;10.00;;
75851;SDS011;64500;52.632;20.656;2023-05-17T17:06:32;20.90;;;9.90;;
75851;SDS011;64500;52.632;20.656;2023-05-17T17:09:00;12.80;;;6.90;;
75851;SDS011;64500;52.632;20.656;2023-05-17T17:11:27;15.50;;;5.60;;
75851;SDS011;64500;52.632;20.656;2023-05-17T17:13:54;13.60;;;4.50;;
75851;SDS011;64500;52.632;20.656;2023-05-17T17:16:21;10.70;;;4.40;;
75851;SDS011;64500;52.632;20.656;2023-05-17T17:18:48;14.20;;;6.00;;
75851;SDS011;64500;52.632;20.656;2023-05-17T17:21:15;17.60;;;7.30;;
75851;SDS011;64500;52.632;20.656;2023-05-17T17:23:42;18.00;;;7.60;;
75851;SDS011;64500;52.632;20.656;2023-05-17T17:26:10;15.50;;;7.00;;
75851;SDS011;64500;52.632;20.656;2023-05-17T17:28:37;13.50;;;6.70;;
75851;SDS011;64500;52.632;20.656;2023-05-17T17:31:04;14.90;;;5.50;;
75851;SDS011;64500;52.632;20.656;2023-05-17T17:33:32;14.70;;;5.90;;
75851;SDS011;64500;52.632;20.656;2023-05-17T17:36:01;13.00;;;5.40;;
75851;SDS011;64500;52.632;20.656;2023-05-17T17:38:28;12.40;;;5.40;;
75851;SDS011;64500;52.632;20.656;2023-05-17T17:40:55;13.90;;;6.50;;
75851;SDS011;64500;52.632;20.656;2023-05-17T17:43:22;12.90;;;6.40;;
75851;SDS011;64500;52.632;20.656;2023-05-17T17:45:49;14.70;;;5.20;;
75851;SDS011;64500;52.632;20.656;2023-05-17T17:48:16;14.00;;;5.10;;
75851;SDS011;64500;52.632;20.656;2023-05-17T17:50:43;13.20;;;5.10;;
75851;SDS011;64500;52.632;20.656;2023-05-17T17:53:11;12.10;;;5.30;;
75851;SDS011;64500;52.632;20.656;2023-05-17T17:55:38;14.70;;;6.30;;
75851;SDS011;64500;52.632;20.656;2023-05-17T17:58:05;17.30;;;5.60;;
75851;SDS011;64500;52.632;20.656;2023-05-17T18:00:32;15.60;;;5.80;;
75851;SDS011;64500;52.632;20.656;2023-05-17T18:03:00;17.90;;;5.80;;
75851;SDS011;64500;52.632;20.656;2023-05-17T18:05:27;12.70;;;5.00;;
75851;SDS011;64500;52.632;20.656;2023-05-17T18:07:54;16.70;;;5.40;;
75851;SDS011;64500;52.632;20.656;2023-05-17T18:10:23;13.90;;;4.80;;
75851;SDS011;64500;52.632;20.656;2023-05-17T18:12:51;17.10;;;5.90;;
75851;SDS011;64500;52.632;20.656;2023-05-17T18:15:19;15.00;;;5.20;;
75851;SDS011;64500;52.632;20.656;2023-05-17T18:17:46;11.90;;;4.50;;
75851;SDS011;64500;52.632;20.656;2023-05-17T18:20:17;12.00;;;4.30;;
75851;SDS011;64500;52.632;20.656;2023-05-17T18:22:45;14.60;;;5.10;;
75851;SDS011;64500;52.632;20.656;2023-05-17T18:25:12;16.60;;;4.80;;
75851;SDS011;64500;52.632;20.656;2023-05-17T18:27:40;10.20;;;4.30;;
75851;SDS011;64500;52.632;20.656;2023-05-17T18:30:07;15.40;;;5.50;;
75851;SDS011;64500;52.632;20.656;2023-05-17T18:32:35;13.20;;;4.50;;
75851;SDS011;64500;52.632;20.656;2023-05-17T18:35:02;13.40;;;3.90;;
75851;SDS011;64500;52.632;20.656;2023-05-17T18:37:29;13.40;;;4.10;;
75851;SDS011;64500;52.632;20.656;2023-05-17T18:39:56;13.10;;;4.10;;
75851;SDS011;64500;52.632;20.656;2023-05-17T18:42:25;12.40;;;4.50;;
75851;SDS011;64500;52.632;20.656;2023-05-17T18:44:52;14.30;;;5.80;;
75851;SDS011;64500;52.632;20.656;2023-05-17T18:47:19;13.80;;;4.80;;
75851;SDS011;64500;52.632;20.656;2023-05-17T18:49:50;17.30;;;5.00;;
75851;SDS011;64500;52.632;20.656;2023-05-17T18:52:17;13.40;;;5.10;;
75851;SDS011;64500;52.632;20.656;2023-05-17T18:54:44;11.70;;;4.40;;
75851;SDS011;64500;52.632;20.656;2023-05-17T18:57:13;10.70;;;4.10;;
75851;SDS011;64500;52.632;20.656;2023-05-17T18:59:40;11.50;;;4.10;;
75851;SDS011;64500;52.632;20.656;2023-05-17T19:02:07;17.60;;;5.40;;
75851;SDS011;64500;52.632;20.656;2023-05-17T19:04:34;12.00;;;4.20;;
75851;SDS011;64500;52.632;20.656;2023-05-17T19:07:02;15.20;;;4.00;;
75851;SDS011;64500;52.632;20.656;2023-05-17T19:09:29;14.90;;;4.20;;
75851;SDS011;64500;52.632;20.656;2023-05-17T19:11:59;14.40;;;4.20;;
75851;SDS011;64500;52.632;20.656;2023-05-17T19:14:26;14.00;;;4.30;;
75851;SDS011;64500;52.632;20.656;2023-05-17T19:16:53;11.90;;;4.30;;
75851;SDS011;64500;52.632;20.656;2023-05-17T19:19:22;11.80;;;3.90;;
75851;SDS011;64500;52.632;20.656;2023-05-17T19:21:50;16.00;;;4.70;;
75851;SDS011;64500;52.632;20.656;2023-05-17T19:24:17;15.90;;;4.90;;
75851;SDS011;64500;52.632;20.656;2023-05-17T19:26:44;14.50;;;4.30;;
75851;SDS011;64500;52.632;20.656;2023-05-17T19:29:11;14.30;;;4.20;;
75851;SDS011;64500;52.632;20.656;2023-05-17T19:31:38;15.10;;;4.50;;
75851;SDS011;64500;52.632;20.656;2023-05-17T19:34:05;13.80;;;4.90;;
75851;SDS011;64500;52.632;20.656;2023-05-17T19:36:32;13.90;;;3.80;;
75851;SDS011;64500;52.632;20.656;2023-05-17T19:38:59;16.70;;;4.90;;
75851;SDS011;64500;52.632;20.656;2023-05-17T19:41:26;15.70;;;5.00;;
75851;SDS011;64500;52.632;20.656;2023-05-17T19:43:54;16.50;;;4.60;;
75851;SDS011;64500;52.632;20.656;2023-05-17T19:46:23;17.10;;;4.90;;
75851;SDS011;64500;52.632;20.656;2023-05-17T19:48:50;15.90;;;4.20;;
75851;SDS011;64500;52.632;20.656;2023-05-17T19:51:18;19.30;;;4.60;;
75851;SDS011;64500;52.632;20.656;2023-05-17T19:53:45;15.90;;;4.40;;
75851;SDS011;64500;52.632;20.656;2023-05-17T19:56:13;15.00;;;4.30;;
75851;SDS011;64500;52.632;20.656;2023-05-17T19:58:40;13.30;;;4.10;;
75851;SDS011;64500;52.632;20.656;2023-05-17T20:01:07;17.70;;;4.50;;
75851;SDS011;64500;52.632;20.656;2023-05-17T20:03:34;13.80;;;4.50;;
75851;SDS011;64500;52.632;20.656;2023-05-17T20:06:01;16.80;;;4.30;;
75851;SDS011;64500;52.632;20.656;2023-05-17T20:08:28;16.30;;;3.80;;
75851;SDS011;64500;52.632;20.656;2023-05-17T20:10:55;13.10;;;4.20;;
75851;SDS011;64500;52.632;20.656;2023-05-17T20:13:22;16.50;;;4.40;;
75851;SDS011;64500;52.632;20.656;2023-05-17T20:15:53;19.70;;;5.30;;
75851;SDS011;64500;52.632;20.656;2023-05-17T20:18:21;15.60;;;3.70;;
75851;SDS011;64500;52.632;20.656;2023-05-17T20:20:48;16.00;;;3.20;;
75851;SDS011;64500;52.632;20.656;2023-05-17T20:23:16;15.50;;;3.50;;
75851;SDS011;64500;52.632;20.656;2023-05-17T20:25:43;12.30;;;2.70;;
75851;SDS011;64500;52.632;20.656;2023-05-17T20:28:11;10.60;;;2.90;;
75851;SDS011;64500;52.632;20.656;2023-05-17T20:30:42;19.30;;;2.80;;
75851;SDS011;64500;52.632;20.656;2023-05-17T20:33:10;13.10;;;3.20;;
75851;SDS011;64500;52.632;20.656;2023-05-17T20:35:37;10.80;;;2.70;;
75851;SDS011;64500;52.632;20.656;2023-05-17T20:38:04;13.80;;;2.60;;
75851;SDS011;64500;52.632;20.656;2023-05-17T20:40:31;14.50;;;3.40;;
75851;SDS011;64500;52.632;20.656;2023-05-17T20:42:58;16.50;;;3.40;;
75851;SDS011;64500;52.632;20.656;2023-05-17T20:45:25;15.10;;;2.70;;
75851;SDS011;64500;52.632;20.656;2023-05-17T20:47:55;14.20;;;2.90;;
75851;SDS011;64500;52.632;20.656;2023-05-17T20:50:22;12.40;;;2.90;;
75851;SDS011;64500;52.632;20.656;2023-05-17T20:52:49;13.60;;;2.70;;
75851;SDS011;64500;52.632;20.656;2023-05-17T20:55:16;18.70;;;4.00;;
75851;SDS011;64500;52.632;20.656;2023-05-17T20:57:43;13.90;;;3.00;;
75851;SDS011;64500;52.632;20.656;2023-05-17T21:00:11;13.10;;;2.90;;
75851;SDS011;64500;52.632;20.656;2023-05-17T21:02:41;14.40;;;3.30;;
75851;SDS011;64500;52.632;20.656;2023-05-17T21:05:08;13.50;;;2.70;;
75851;SDS011;64500;52.632;20.656;2023-05-17T21:07:36;14.10;;;3.70;;
75851;SDS011;64500;52.632;20.656;2023-05-17T21:10:06;13.00;;;3.10;;
75851;SDS011;64500;52.632;20.656;2023-05-17T21:12:34;16.60;;;3.00;;
75851;SDS011;64500;52.632;20.656;2023-05-17T21:15:01;16.80;;;3.60;;
75851;SDS011;64500;52.632;20.656;2023-05-17T21:17:29;13.90;;;3.30;;
75851;SDS011;64500;52.632;20.656;2023-05-17T21:19:56;15.10;;;2.60;;
75851;SDS011;64500;52.632;20.656;2023-05-17T21:22:23;18.60;;;3.40;;
75851;SDS011;64500;52.632;20.656;2023-05-17T21:24:50;14.20;;;2.80;;
75851;SDS011;64500;52.632;20.656;2023-05-17T21:27:17;12.20;;;2.40;;
75851;SDS011;64500;52.632;20.656;2023-05-17T21:29:44;12.50;;;2.80;;
75851;SDS011;64500;52.632;20.656;2023-05-17T21:32:11;12.20;;;2.50;;
75851;SDS011;64500;52.632;20.656;2023-05-17T21:34:38;19.80;;;2.90;;
75851;SDS011;64500;52.632;20.656;2023-05-17T21:37:06;13.00;;;2.70;;
75851;SDS011;64500;52.632;20.656;2023-05-17T21:39:32;13.70;;;2.30;;
75851;SDS011;64500;52.632;20.656;2023-05-17T21:42:00;12.60;;;2.90;;